Terminal Aerodrome Forecast
Issued by NWS

Home | Current Version | Previous Version | Text Only | Print | Product List | Glossary On
Versions: 1 2 3 4 5 6 7 8 9 10 11 12 13 14 15 16 17 18
000
FTUS41 KGYX 231400 AAA
TAFLEB
TAF AMD
KLEB 231413Z 2314/2412 34010G18KT P6SM BKN020 OVC030
     FM231800 32014G22KT 5SM -SHRA BKN030 OVC050
     FM240000 32014G22KT P6SM VCSH BKN050 BKN080=

USA.gov is the U.S. government's official web portal to all federal, state and local government web resources and services.